PWSweather.com
Personal Weather Stations
Station Observations
KCOGRAND2
Redlands, Southcamp Road & Dakota Circle, Grand Junction, CO 81507

Redlands, Southcamp Road & Dakota CircleGrand Junction, CO 81507

Lat: 39.055, Lon: -108.637

Elevation: 4870

Station Type: RadioShack WX200

High Low Average
Temperature 72.1°F22.3°F 47.3°F8.5°F 60.4°F15.8°F
Dew Point 33.6°F0.9°F 13.6°F-10.2°F 27.4°F-2.6°F
Winds 8.0 mph N12.9 mph N Calm Calm 2.9 mph 4.7 mph
Wind Gusts 12.5 mph20.1 mph -- 5.5 mph8.9 mph
Humidity 52% 11% 31%
Pressure 25.19 in853.00 in 25.07 in849.00 in -
Precipitation 0.00 in0.00 in - -
Hour Temp Dew Point Humidity Winds Wind Gusts Pressure Precip Precip Rate Daily Precip Total
12:00 AM 58.8°F14.9°C 23.0°F-5.0°C 25% Calm Calm -- 25.10 in850.0 mb 0.00 in0.0 mm 0.00 in/hr0.0 mm/hr 0.00 in0.0 mm
12:05 AM 58.8°F14.9°C 23.0°F-5.0°C 25% Calm Calm 3.6 mph5.8 kmh 25.10 in850.0 mb 0.00 in0.0 mm 0.00 in/hr0.0 mm/hr 0.00 in0.0 mm
12:10 AM 58.5°F14.7°C 22.8°F-5.1°C 25% 1.0 mph ESE1.6 kmh ESE 4.0 mph6.4 kmh 25.10 in850.0 mb 0.00 in0.0 mm 0.00 in/hr0.0 mm/hr 0.00 in0.0 mm
12:15 AM 57.6°F14.2°C 23.0°F-5.0°C 26% 1.0 mph ESE1.6 kmh ESE 3.6 mph5.8 kmh 25.10 in850.0 mb 0.00 in0.0 mm 0.00 in/hr0.0 mm/hr 0.00 in0.0 mm
12:20 AM 57.9°F14.4°C 24.1°F-4.4°C 27% Calm Calm 3.1 mph5.0 kmh 25.10 in850.0 mb 0.00 in0.0 mm 0.00 in/hr0.0 mm/hr 0.00 in0.0 mm
12:25 AM 58.1°F14.5°C 23.4°F-4.8°C 26% Calm Calm -- 25.10 in850.0 mb 0.00 in0.0 mm 0.00 in/hr0.0 mm/hr 0.00 in0.0 mm
12:30 AM 58.3°F14.6°C 22.6°F-5.2°C 25% Calm Calm 3.6 mph5.8 kmh 25.10 in850.0 mb 0.00 in0.0 mm 0.00 in/hr0.0 mm/hr 0.00 in0.0 mm
12:35 AM 58.8°F14.9°C 23.0°F-5.0°C 25% Calm Calm 3.1 mph5.0 kmh 25.10 in850.0 mb 0.00 in0.0 mm 0.00 in/hr0.0 mm/hr 0.00 in0.0 mm
12:40 AM 58.6°F14.8°C 23.0°F-5.0°C 25% Calm Calm 3.1 mph5.0 kmh 25.10 in850.0 mb 0.00 in0.0 mm 0.00 in/hr0.0 mm/hr 0.00 in0.0 mm
12:45 AM 57.6°F14.2°C 23.0°F-5.0°C 26% 1.0 mph ESE1.6 kmh ESE 4.9 mph7.9 kmh 25.10 in850.0 mb 0.00 in0.0 mm 0.00 in/hr0.0 mm/hr 0.00 in0.0 mm
12:50 AM 57.9°F14.4°C 24.1°F-4.4°C 27% 1.0 mph E1.6 kmh E 4.9 mph7.9 kmh 25.13 in851.0 mb 0.00 in0.0 mm 0.00 in/hr0.0 mm/hr 0.00 in0.0 mm
12:55 AM 57.4°F14.1°C 25.3°F-3.7°C 29% 2.0 mph NE3.2 kmh NE 5.8 mph9.3 kmh 25.13 in851.0 mb 0.00 in0.0 mm 0.00 in/hr0.0 mm/hr 0.00 in0.0 mm
01:00 AM 57.4°F14.1°C 26.2°F-3.2°C 30% 3.0 mph N4.8 kmh N 5.8 mph9.3 kmh 25.13 in851.0 mb 0.00 in0.0 mm 0.00 in/hr0.0 mm/hr 0.00 in0.0 mm
01:05 AM 57.7°F14.3°C 25.7°F-3.5°C 29% 4.0 mph NNW6.4 kmh NNW 5.8 mph9.3 kmh 25.13 in851.0 mb 0.00 in0.0 mm 0.00 in/hr0.0 mm/hr 0.00 in0.0 mm
01:10 AM 56.3°F13.5°C 25.3°F-3.7°C 30% 3.0 mph NNW4.8 kmh NNW 4.9 mph7.9 kmh 25.13 in851.0 mb 0.00 in0.0 mm 0.00 in/hr0.0 mm/hr 0.00 in0.0 mm
01:15 AM 55.2°F12.9°C 27.3°F-2.6°C 34% 3.0 mph N4.8 kmh N 4.0 mph6.4 kmh 25.13 in851.0 mb 0.00 in0.0 mm 0.00 in/hr0.0 mm/hr 0.00 in0.0 mm
01:20 AM 54.0°F12.2°C 27.7°F-2.4°C 36% 3.0 mph N4.8 kmh N 4.0 mph6.4 kmh 25.13 in851.0 mb 0.00 in0.0 mm 0.00 in/hr0.0 mm/hr 0.00 in0.0 mm
01:25 AM 53.2°F11.8°C 27.7°F-2.4°C 37% 1.0 mph N1.6 kmh N 3.1 mph5.0 kmh 25.13 in851.0 mb 0.00 in0.0 mm 0.00 in/hr0.0 mm/hr 0.00 in0.0 mm
01:30 AM 52.7°F11.5°C 27.9°F-2.3°C 38% Calm Calm 2.7 mph4.3 kmh 25.13 in851.0 mb 0.00 in0.0 mm 0.00 in/hr0.0 mm/hr 0.00 in0.0 mm
01:35 AM 53.1°F11.7°C 28.2°F-2.1°C 38% Calm Calm 4.0 mph6.4 kmh 25.13 in851.0 mb 0.00 in0.0 mm 0.00 in/hr0.0 mm/hr 0.00 in0.0 mm
01:40 AM 54.9°F12.7°C 28.4°F-2.0°C 36% 1.0 mph NNE1.6 kmh NNE 4.0 mph6.4 kmh 25.13 in851.0 mb 0.00 in0.0 mm 0.00 in/hr0.0 mm/hr 0.00 in0.0 mm
01:45 AM 55.2°F12.9°C 28.0°F-2.2°C 35% 2.0 mph NE3.2 kmh NE 4.5 mph7.2 kmh 25.13 in851.0 mb 0.00 in0.0 mm 0.00 in/hr0.0 mm/hr 0.00 in0.0 mm
01:50 AM 54.7°F12.6°C 27.5°F-2.5°C 35% 1.0 mph E1.6 kmh E 3.6 mph5.8 kmh 25.13 in851.0 mb 0.00 in0.0 mm 0.00 in/hr0.0 mm/hr 0.00 in0.0 mm
01:55 AM 54.9°F12.7°C 27.7°F-2.4°C 35% Calm Calm 2.7 mph4.3 kmh 25.13 in851.0 mb 0.00 in0.0 mm 0.00 in/hr0.0 mm/hr 0.00 in0.0 mm
02:00 AM 54.5°F12.5°C 27.5°F-2.5°C 35% 1.0 mph E1.6 kmh E 4.5 mph7.2 kmh 25.13 in851.0 mb 0.00 in0.0 mm 0.00 in/hr0.0 mm/hr 0.00 in0.0 mm
02:05 AM 53.8°F12.1°C 27.5°F-2.5°C 36% 1.0 mph E1.6 kmh E 3.6 mph5.8 kmh 25.13 in851.0 mb 0.00 in0.0 mm 0.00 in/hr0.0 mm/hr 0.00 in0.0 mm
02:10 AM 54.0°F12.2°C 27.7°F-2.4°C 36% 2.0 mph E3.2 kmh E 4.5 mph7.2 kmh 25.13 in851.0 mb 0.00 in0.0 mm 0.00 in/hr0.0 mm/hr 0.00 in0.0 mm
02:15 AM 53.2°F11.8°C 27.7°F-2.4°C 37% 2.0 mph E3.2 kmh E 4.0 mph6.4 kmh 25.13 in851.0 mb 0.00 in0.0 mm 0.00 in/hr0.0 mm/hr 0.00 in0.0 mm
02:20 AM 52.9°F11.6°C 27.3°F-2.6°C 37% 1.0 mph E1.6 kmh E 3.1 mph5.0 kmh 25.10 in850.0 mb 0.00 in0.0 mm 0.00 in/hr0.0 mm/hr 0.00 in0.0 mm
02:25 AM 52.0°F11.1°C 27.1°F-2.7°C 38% Calm Calm 2.7 mph4.3 kmh 25.10 in850.0 mb 0.00 in0.0 mm 0.00 in/hr0.0 mm/hr 0.00 in0.0 mm
02:30 AM 53.1°F11.7°C 28.2°F-2.1°C 38% Calm Calm 3.6 mph5.8 kmh 25.10 in850.0 mb 0.00 in0.0 mm 0.00 in/hr0.0 mm/hr 0.00 in0.0 mm
02:35 AM 52.5°F11.4°C 27.7°F-2.4°C 38% Calm Calm 4.0 mph6.4 kmh 25.13 in851.0 mb 0.00 in0.0 mm 0.00 in/hr0.0 mm/hr 0.00 in0.0 mm
02:40 AM 51.4°F10.8°C 27.3°F-2.6°C 39% 1.0 mph E1.6 kmh E 4.5 mph7.2 kmh 25.13 in851.0 mb 0.00 in0.0 mm 0.00 in/hr0.0 mm/hr 0.00 in0.0 mm
02:45 AM 50.5°F10.3°C 27.7°F-2.4°C 41% 2.0 mph E3.2 kmh E 5.4 mph8.7 kmh 25.13 in851.0 mb 0.00 in0.0 mm 0.00 in/hr0.0 mm/hr 0.00 in0.0 mm
02:50 AM 50.4°F10.2°C 29.3°F-1.5°C 44% 3.0 mph E4.8 kmh E 5.4 mph8.7 kmh 25.13 in851.0 mb 0.00 in0.0 mm 0.00 in/hr0.0 mm/hr 0.00 in0.0 mm
02:55 AM 50.4°F10.2°C 29.8°F-1.2°C 45% 2.0 mph E3.2 kmh E 3.6 mph5.8 kmh 25.13 in851.0 mb 0.00 in0.0 mm 0.00 in/hr0.0 mm/hr 0.00 in0.0 mm
03:00 AM 50.4°F10.2°C 30.4°F-0.9°C 46% 1.0 mph E1.6 kmh E 3.1 mph5.0 kmh 25.13 in851.0 mb 0.00 in0.0 mm 0.00 in/hr0.0 mm/hr 0.00 in0.0 mm
03:05 AM 50.5°F10.3°C 30.6°F-0.8°C 46% 1.0 mph E1.6 kmh E 3.6 mph5.8 kmh 25.13 in851.0 mb 0.00 in0.0 mm 0.00 in/hr0.0 mm/hr 0.00 in0.0 mm
03:10 AM 50.5°F10.3°C 30.6°F-0.8°C 46% Calm Calm -- 25.13 in851.0 mb 0.00 in0.0 mm 0.00 in/hr0.0 mm/hr 0.00 in0.0 mm
03:15 AM 50.5°F10.3°C 30.6°F-0.8°C 46% Calm Calm 4.0 mph6.4 kmh 25.13 in851.0 mb 0.00 in0.0 mm 0.00 in/hr0.0 mm/hr 0.00 in0.0 mm
03:20 AM 50.9°F10.5°C 29.8°F-1.2°C 44% 1.0 mph E1.6 kmh E 4.0 mph6.4 kmh 25.13 in851.0 mb 0.00 in0.0 mm 0.00 in/hr0.0 mm/hr 0.00 in0.0 mm
03:25 AM 50.4°F10.2°C 29.8°F-1.2°C 45% 1.0 mph E1.6 kmh E 4.5 mph7.2 kmh 25.13 in851.0 mb 0.00 in0.0 mm 0.00 in/hr0.0 mm/hr 0.00 in0.0 mm
03:30 AM 49.6°F9.8°C 29.7°F-1.3°C 46% 1.0 mph E1.6 kmh E 4.0 mph6.4 kmh 25.13 in851.0 mb 0.00 in0.0 mm 0.00 in/hr0.0 mm/hr 0.00 in0.0 mm
03:35 AM 50.9°F10.5°C 30.9°F-0.6°C 46% 1.0 mph E1.6 kmh E 4.0 mph6.4 kmh 25.13 in851.0 mb 0.00 in0.0 mm 0.00 in/hr0.0 mm/hr 0.00 in0.0 mm
03:40 AM 50.5°F10.3°C 30.0°F-1.1°C 45% 1.0 mph E1.6 kmh E 3.1 mph5.0 kmh 25.13 in851.0 mb 0.00 in0.0 mm 0.00 in/hr0.0 mm/hr 0.00 in0.0 mm
03:45 AM 50.0°F10.0°C 29.5°F-1.4°C 45% Calm Calm 3.1 mph5.0 kmh 25.13 in851.0 mb 0.00 in0.0 mm 0.00 in/hr0.0 mm/hr 0.00 in0.0 mm
03:50 AM 50.2°F10.1°C 30.2°F-1.0°C 46% Calm Calm -- 25.13 in851.0 mb 0.00 in0.0 mm 0.00 in/hr0.0 mm/hr 0.00 in0.0 mm
03:55 AM 50.9°F10.5°C 30.4°F-0.9°C 45% Calm Calm -- 25.13 in851.0 mb 0.00 in0.0 mm 0.00 in/hr0.0 mm/hr 0.00 in0.0 mm
04:00 AM 50.5°F10.3°C 28.9°F-1.7°C 43% Calm Calm 3.6 mph5.8 kmh 25.13 in851.0 mb 0.00 in0.0 mm 0.00 in/hr0.0 mm/hr 0.00 in0.0 mm
04:05 AM 51.6°F10.9°C 29.3°F-1.5°C 42% Calm Calm 2.7 mph4.3 kmh 25.13 in851.0 mb 0.00 in0.0 mm 0.00 in/hr0.0 mm/hr 0.00 in0.0 mm
04:10 AM 50.4°F10.2°C 28.8°F-1.8°C 43% 1.0 mph E1.6 kmh E 4.0 mph6.4 kmh 25.13 in851.0 mb 0.00 in0.0 mm 0.00 in/hr0.0 mm/hr 0.00 in0.0 mm
04:15 AM 50.2°F10.1°C 28.6°F-1.9°C 43% 2.0 mph E3.2 kmh E 3.6 mph5.8 kmh 25.13 in851.0 mb 0.00 in0.0 mm 0.00 in/hr0.0 mm/hr 0.00 in0.0 mm
04:20 AM 49.5°F9.7°C 28.9°F-1.7°C 45% 3.0 mph E4.8 kmh E 4.0 mph6.4 kmh 25.13 in851.0 mb 0.00 in0.0 mm 0.00 in/hr0.0 mm/hr 0.00 in0.0 mm
04:25 AM 48.4°F9.1°C 29.1°F-1.6°C 47% 3.0 mph E4.8 kmh E 4.0 mph6.4 kmh 25.13 in851.0 mb 0.00 in0.0 mm 0.00 in/hr0.0 mm/hr 0.00 in0.0 mm
04:30 AM 49.3°F9.6°C 29.8°F-1.2°C 47% 3.0 mph ENE4.8 kmh ENE 4.9 mph7.9 kmh 25.13 in851.0 mb 0.00 in0.0 mm 0.00 in/hr0.0 mm/hr 0.00 in0.0 mm
04:35 AM 48.7°F9.3°C 30.0°F-1.1°C 48% 1.0 mph ENE1.6 kmh ENE 3.1 mph5.0 kmh 25.13 in851.0 mb 0.00 in0.0 mm 0.00 in/hr0.0 mm/hr 0.00 in0.0 mm
04:40 AM 49.5°F9.7°C 30.0°F-1.1°C 47% Calm Calm 2.7 mph4.3 kmh 25.13 in851.0 mb 0.00 in0.0 mm 0.00 in/hr0.0 mm/hr 0.00 in0.0 mm
04:45 AM 50.9°F10.5°C 31.5°F-0.3°C 47% Calm Calm 2.7 mph4.3 kmh 25.13 in851.0 mb 0.00 in0.0 mm 0.00 in/hr0.0 mm/hr 0.00 in0.0 mm
04:50 AM 51.4°F10.8°C 30.2°F-1.0°C 44% Calm Calm -- 25.13 in851.0 mb 0.00 in0.0 mm 0.00 in/hr0.0 mm/hr 0.00 in0.0 mm
04:55 AM 52.5°F11.4°C 30.7°F-0.7°C 43% Calm Calm 4.0 mph6.4 kmh 25.13 in851.0 mb 0.00 in0.0 mm 0.00 in/hr0.0 mm/hr 0.00 in0.0 mm
05:00 AM 52.9°F11.6°C 29.8°F-1.2°C 41% 1.0 mph ENE1.6 kmh ENE 5.4 mph8.7 kmh 25.13 in851.0 mb 0.00 in0.0 mm 0.00 in/hr0.0 mm/hr 0.00 in0.0 mm
05:05 AM 52.2°F11.2°C 29.1°F-1.6°C 41% 2.0 mph NE3.2 kmh NE 4.5 mph7.2 kmh 25.13 in851.0 mb 0.00 in0.0 mm 0.00 in/hr0.0 mm/hr 0.00 in0.0 mm
05:10 AM 52.3°F11.3°C 29.3°F-1.5°C 41% 1.0 mph NE1.6 kmh NE 3.6 mph5.8 kmh 25.13 in851.0 mb 0.00 in0.0 mm 0.00 in/hr0.0 mm/hr 0.00 in0.0 mm
05:16 AM 52.3°F11.3°C 28.8°F-1.8°C 40% Calm Calm -- 25.13 in851.0 mb 0.00 in0.0 mm 0.00 in/hr0.0 mm/hr 0.00 in0.0 mm
05:21 AM 52.0°F11.1°C 28.9°F-1.7°C 41% Calm Calm 4.0 mph6.4 kmh 25.13 in851.0 mb 0.00 in0.0 mm 0.00 in/hr0.0 mm/hr 0.00 in0.0 mm
05:26 AM 51.8°F11.0°C 28.9°F-1.7°C 41% Calm Calm -- 25.13 in851.0 mb 0.00 in0.0 mm 0.00 in/hr0.0 mm/hr 0.00 in0.0 mm
05:31 AM 52.5°F11.4°C 29.5°F-1.4°C 41% Calm Calm 3.1 mph5.0 kmh 25.13 in851.0 mb 0.00 in0.0 mm 0.00 in/hr0.0 mm/hr 0.00 in0.0 mm
05:36 AM 53.1°F11.7°C 29.3°F-1.5°C 40% Calm Calm 3.1 mph5.0 kmh 25.13 in851.0 mb 0.00 in0.0 mm 0.00 in/hr0.0 mm/hr 0.00 in0.0 mm
05:41 AM 52.0°F11.1°C 28.4°F-2.0°C 40% 2.0 mph NE3.2 kmh NE 4.9 mph7.9 kmh 25.13 in851.0 mb 0.00 in0.0 mm 0.00 in/hr0.0 mm/hr 0.00 in0.0 mm
05:46 AM 53.2°F11.8°C 29.5°F-1.4°C 40% 4.0 mph NNE6.4 kmh NNE 5.8 mph9.3 kmh 25.13 in851.0 mb 0.00 in0.0 mm 0.00 in/hr0.0 mm/hr 0.00 in0.0 mm
05:51 AM 52.5°F11.4°C 29.5°F-1.4°C 41% 4.0 mph N6.4 kmh N 5.4 mph8.7 kmh 25.13 in851.0 mb 0.00 in0.0 mm 0.00 in/hr0.0 mm/hr 0.00 in0.0 mm
05:56 AM 52.2°F11.2°C 29.8°F-1.2°C 42% 4.0 mph N6.4 kmh N 5.4 mph8.7 kmh 25.13 in851.0 mb 0.00 in0.0 mm 0.00 in/hr0.0 mm/hr 0.00 in0.0 mm
06:01 AM 52.2°F11.2°C 29.8°F-1.2°C 42% 4.0 mph NNE6.4 kmh NNE 4.9 mph7.9 kmh 25.13 in851.0 mb 0.00 in0.0 mm 0.00 in/hr0.0 mm/hr 0.00 in0.0 mm
06:06 AM 51.1°F10.6°C 30.0°F-1.1°C 44% 3.0 mph NNE4.8 kmh NNE 3.6 mph5.8 kmh 25.13 in851.0 mb 0.00 in0.0 mm 0.00 in/hr0.0 mm/hr 0.00 in0.0 mm
06:11 AM 49.8°F9.9°C 29.8°F-1.2°C 46% 2.0 mph NNE3.2 kmh NNE 4.0 mph6.4 kmh 25.13 in851.0 mb 0.00 in0.0 mm 0.00 in/hr0.0 mm/hr 0.00 in0.0 mm
06:16 AM 48.7°F9.3°C 30.0°F-1.1°C 48% 1.0 mph NNE1.6 kmh NNE 2.7 mph4.3 kmh 25.13 in851.0 mb 0.00 in0.0 mm 0.00 in/hr0.0 mm/hr 0.00 in0.0 mm
06:21 AM 48.7°F9.3°C 30.4°F-0.9°C 49% Calm Calm 3.1 mph5.0 kmh 25.13 in851.0 mb 0.00 in0.0 mm 0.00 in/hr0.0 mm/hr 0.00 in0.0 mm
06:26 AM 48.7°F9.3°C 30.4°F-0.9°C 49% Calm Calm -- 25.13 in851.0 mb 0.00 in0.0 mm 0.00 in/hr0.0 mm/hr 0.00 in0.0 mm
06:31 AM 48.6°F9.2°C 30.7°F-0.7°C 50% Calm Calm -- 25.13 in851.0 mb 0.00 in0.0 mm 0.00 in/hr0.0 mm/hr 0.00 in0.0 mm
06:36 AM 48.6°F9.2°C 30.7°F-0.7°C 50% Calm Calm -- 25.16 in852.0 mb 0.00 in0.0 mm 0.00 in/hr0.0 mm/hr 0.00 in0.0 mm
06:41 AM 49.6°F9.8°C 31.8°F-0.1°C 50% Calm Calm -- 25.16 in852.0 mb 0.00 in0.0 mm 0.00 in/hr0.0 mm/hr 0.00 in0.0 mm
06:46 AM 50.4°F10.2°C 30.9°F-0.6°C 47% Calm Calm -- 25.16 in852.0 mb 0.00 in0.0 mm 0.00 in/hr0.0 mm/hr 0.00 in0.0 mm
06:51 AM 50.7°F10.4°C 30.7°F-0.7°C 46% Calm Calm -- 25.16 in852.0 mb 0.00 in0.0 mm 0.00 in/hr0.0 mm/hr 0.00 in0.0 mm
06:56 AM 50.5°F10.3°C 30.6°F-0.8°C 46% Calm Calm -- 25.16 in852.0 mb 0.00 in0.0 mm 0.00 in/hr0.0 mm/hr 0.00 in0.0 mm
07:01 AM 50.9°F10.5°C 30.9°F-0.6°C 46% Calm Calm 3.6 mph5.8 kmh 25.16 in852.0 mb 0.00 in0.0 mm 0.00 in/hr0.0 mm/hr 0.00 in0.0 mm
07:06 AM 49.3°F9.6°C 29.8°F-1.2°C 47% 2.0 mph NNE3.2 kmh NNE 4.9 mph7.9 kmh 25.16 in852.0 mb 0.00 in0.0 mm 0.00 in/hr0.0 mm/hr 0.00 in0.0 mm
07:11 AM 48.6°F9.2°C 30.2°F-1.0°C 49% 4.0 mph NNE6.4 kmh NNE 5.4 mph8.7 kmh 25.16 in852.0 mb 0.00 in0.0 mm 0.00 in/hr0.0 mm/hr 0.00 in0.0 mm
07:16 AM 48.7°F9.3°C 30.4°F-0.9°C 49% 4.0 mph NNE6.4 kmh NNE 5.4 mph8.7 kmh 25.16 in852.0 mb 0.00 in0.0 mm 0.00 in/hr0.0 mm/hr 0.00 in0.0 mm
07:21 AM 48.7°F9.3°C 30.4°F-0.9°C 49% 3.0 mph NNE4.8 kmh NNE 4.5 mph7.2 kmh 25.16 in852.0 mb 0.00 in0.0 mm 0.00 in/hr0.0 mm/hr 0.00 in0.0 mm
07:26 AM 48.2°F9.0°C 30.0°F-1.1°C 49% 1.0 mph NNE1.6 kmh NNE 3.6 mph5.8 kmh 25.16 in852.0 mb 0.00 in0.0 mm 0.00 in/hr0.0 mm/hr 0.00 in0.0 mm
07:31 AM 47.7°F8.7°C 30.0°F-1.1°C 50% Calm Calm 3.6 mph5.8 kmh 25.16 in852.0 mb 0.00 in0.0 mm 0.00 in/hr0.0 mm/hr 0.00 in0.0 mm
07:36 AM 47.3°F8.5°C 30.0°F-1.1°C 51% 1.0 mph NNE1.6 kmh NNE 4.0 mph6.4 kmh 25.16 in852.0 mb 0.00 in0.0 mm 0.00 in/hr0.0 mm/hr 0.00 in0.0 mm
07:41 AM 47.3°F8.5°C 30.0°F-1.1°C 51% Calm Calm 3.6 mph5.8 kmh 25.16 in852.0 mb 0.00 in0.0 mm 0.00 in/hr0.0 mm/hr 0.00 in0.0 mm
07:46 AM 47.5°F8.6°C 30.7°F-0.7°C 52% Calm Calm -- 25.16 in852.0 mb 0.00 in0.0 mm 0.00 in/hr0.0 mm/hr 0.00 in0.0 mm
07:51 AM 48.2°F9.0°C 30.9°F-0.6°C 51% Calm Calm 3.6 mph5.8 kmh 25.16 in852.0 mb 0.00 in0.0 mm 0.00 in/hr0.0 mm/hr 0.00 in0.0 mm
07:56 AM 49.6°F9.8°C 31.3°F-0.4°C 49% Calm Calm 3.1 mph5.0 kmh 25.16 in852.0 mb 0.00 in0.0 mm 0.00 in/hr0.0 mm/hr 0.00 in0.0 mm
08:01 AM 50.2°F10.1°C 31.3°F-0.4°C 48% Calm Calm -- 25.16 in852.0 mb 0.00 in0.0 mm 0.00 in/hr0.0 mm/hr 0.00 in0.0 mm
08:06 AM 51.6°F10.9°C 31.5°F-0.3°C 46% Calm Calm -- 25.16 in852.0 mb 0.00 in0.0 mm 0.00 in/hr0.0 mm/hr 0.00 in0.0 mm
08:11 AM 52.9°F11.6°C 29.8°F-1.2°C 41% Calm Calm -- 25.16 in852.0 mb 0.00 in0.0 mm 0.00 in/hr0.0 mm/hr 0.00 in0.0 mm
08:16 AM 54.5°F12.5°C 31.3°F-0.4°C 41% Calm Calm -- 25.16 in852.0 mb 0.00 in0.0 mm 0.00 in/hr0.0 mm/hr 0.00 in0.0 mm
08:21 AM 55.4°F13.0°C 30.9°F-0.6°C 39% 1.0 mph NNE1.6 kmh NNE 4.5 mph7.2 kmh 25.16 in852.0 mb 0.00 in0.0 mm 0.00 in/hr0.0 mm/hr 0.00 in0.0 mm
08:26 AM 56.3°F13.5°C 31.1°F-0.5°C 38% 2.0 mph NNE3.2 kmh NNE 4.0 mph6.4 kmh 25.16 in852.0 mb 0.00 in0.0 mm 0.00 in/hr0.0 mm/hr 0.00 in0.0 mm
08:31 AM 56.8°F13.8°C 30.9°F-0.6°C 37% 1.0 mph NNE1.6 kmh NNE -- 25.16 in852.0 mb 0.00 in0.0 mm 0.00 in/hr0.0 mm/hr 0.00 in0.0 mm
08:36 AM 57.0°F13.9°C 30.9°F-0.6°C 37% Calm Calm -- 25.19 in853.0 mb 0.00 in0.0 mm 0.00 in/hr0.0 mm/hr 0.00 in0.0 mm
08:41 AM 56.7°F13.7°C 30.0°F-1.1°C 36% Calm Calm 5.8 mph9.3 kmh 25.19 in853.0 mb 0.00 in0.0 mm 0.00 in/hr0.0 mm/hr 0.00 in0.0 mm
08:46 AM 55.8°F13.2°C 31.1°F-0.5°C 39% 3.0 mph NNW4.8 kmh NNW 5.8 mph9.3 kmh 25.19 in853.0 mb 0.00 in0.0 mm 0.00 in/hr0.0 mm/hr 0.00 in0.0 mm
08:51 AM 54.5°F12.5°C 31.8°F-0.1°C 42% 5.0 mph NW8.0 kmh NW 7.4 mph11.9 kmh 25.16 in852.0 mb 0.00 in0.0 mm 0.00 in/hr0.0 mm/hr 0.00 in0.0 mm
08:56 AM 54.3°F12.4°C 33.4°F0.8°C 45% 6.0 mph NW9.7 kmh NW 6.9 mph11.1 kmh 25.16 in852.0 mb 0.00 in0.0 mm 0.00 in/hr0.0 mm/hr 0.00 in0.0 mm
09:01 AM 54.5°F12.5°C 33.6°F0.9°C 45% 5.0 mph NW8.0 kmh NW 6.9 mph11.1 kmh 25.16 in852.0 mb 0.00 in0.0 mm 0.00 in/hr0.0 mm/hr 0.00 in0.0 mm
09:06 AM 55.2°F12.9°C 33.6°F0.9°C 44% 4.0 mph NW6.4 kmh NW 6.3 mph10.1 kmh 25.19 in853.0 mb 0.00 in0.0 mm 0.00 in/hr0.0 mm/hr 0.00 in0.0 mm
09:11 AM 56.1°F13.4°C 33.3°F0.7°C 42% 4.0 mph NNW6.4 kmh NNW 6.9 mph11.1 kmh 25.19 in853.0 mb 0.00 in0.0 mm 0.00 in/hr0.0 mm/hr 0.00 in0.0 mm
09:16 AM 56.3°F13.5°C 32.4°F0.2°C 40% 5.0 mph NNW8.0 kmh NNW 8.3 mph13.4 kmh 25.19 in853.0 mb 0.00 in0.0 mm 0.00 in/hr0.0 mm/hr 0.00 in0.0 mm
09:21 AM 56.1°F13.4°C 32.2°F0.1°C 40% 5.0 mph NNW8.0 kmh NNW 7.8 mph12.6 kmh 25.19 in853.0 mb 0.00 in0.0 mm 0.00 in/hr0.0 mm/hr 0.00 in0.0 mm
09:26 AM 56.1°F13.4°C 31.5°F-0.3°C 39% 5.0 mph NNW8.0 kmh NNW 9.2 mph14.8 kmh 25.19 in853.0 mb 0.00 in0.0 mm 0.00 in/hr0.0 mm/hr 0.00 in0.0 mm
09:31 AM 56.5°F13.6°C 31.1°F-0.5°C 38% 6.0 mph NNW9.7 kmh NNW 9.2 mph14.8 kmh 25.19 in853.0 mb 0.00 in0.0 mm 0.00 in/hr0.0 mm/hr 0.00 in0.0 mm
09:36 AM 57.0°F13.9°C 31.6°F-0.2°C 38% 7.0 mph N11.3 kmh N 11.6 mph18.7 kmh 25.19 in853.0 mb 0.00 in0.0 mm 0.00 in/hr0.0 mm/hr 0.00 in0.0 mm
09:41 AM 57.2°F14.0°C 31.1°F-0.5°C 37% 8.0 mph N12.9 kmh N 12.5 mph20.1 kmh 25.19 in853.0 mb 0.00 in0.0 mm 0.00 in/hr0.0 mm/hr 0.00 in0.0 mm
09:46 AM 57.9°F14.4°C 31.8°F-0.1°C 37% 7.0 mph N11.3 kmh N 10.5 mph16.9 kmh 25.19 in853.0 mb 0.00 in0.0 mm 0.00 in/hr0.0 mm/hr 0.00 in0.0 mm
09:51 AM 58.1°F14.5°C 32.0°F0.0°C 37% 7.0 mph N11.3 kmh N 11.6 mph18.7 kmh 25.19 in853.0 mb 0.00 in0.0 mm 0.00 in/hr0.0 mm/hr 0.00 in0.0 mm
09:56 AM 57.9°F14.4°C 31.1°F-0.5°C 36% 7.0 mph NNW11.3 kmh NNW 9.6 mph15.4 kmh 25.19 in853.0 mb 0.00 in0.0 mm 0.00 in/hr0.0 mm/hr 0.00 in0.0 mm
10:01 AM 58.3°F14.6°C 31.5°F-0.3°C 36% 7.0 mph N11.3 kmh N 11.0 mph17.7 kmh 25.19 in853.0 mb 0.00 in0.0 mm 0.00 in/hr0.0 mm/hr 0.00 in0.0 mm
10:06 AM 58.8°F14.9°C 31.3°F-0.4°C 35% 7.0 mph N11.3 kmh N 11.0 mph17.7 kmh 25.19 in853.0 mb 0.00 in0.0 mm 0.00 in/hr0.0 mm/hr 0.00 in0.0 mm
10:11 AM 59.4°F15.2°C 31.6°F-0.2°C 35% 7.0 mph N11.3 kmh N 12.5 mph20.1 kmh 25.19 in853.0 mb 0.00 in0.0 mm 0.00 in/hr0.0 mm/hr 0.00 in0.0 mm
10:16 AM 60.4°F15.8°C 32.7°F0.4°C 35% 7.0 mph N11.3 kmh N 9.6 mph15.4 kmh 25.19 in853.0 mb 0.00 in0.0 mm 0.00 in/hr0.0 mm/hr 0.00 in0.0 mm
10:21 AM 60.3°F15.7°C 31.8°F-0.1°C 34% 7.0 mph N11.3 kmh N 11.0 mph17.7 kmh 25.19 in853.0 mb 0.00 in0.0 mm 0.00 in/hr0.0 mm/hr 0.00 in0.0 mm
10:26 AM 60.6°F15.9°C 32.2°F0.1°C 34% 7.0 mph N11.3 kmh N 11.6 mph18.7 kmh 25.19 in853.0 mb 0.00 in0.0 mm 0.00 in/hr0.0 mm/hr 0.00 in0.0 mm
10:31 AM 61.3°F16.3°C 32.7°F0.4°C 34% 6.0 mph NNW9.7 kmh NNW 8.7 mph14.0 kmh 25.19 in853.0 mb 0.00 in0.0 mm 0.00 in/hr0.0 mm/hr 0.00 in0.0 mm
10:36 AM 61.9°F16.6°C 30.9°F-0.6°C 31% 6.0 mph N9.7 kmh N 10.1 mph16.3 kmh 25.19 in853.0 mb 0.00 in0.0 mm 0.00 in/hr0.0 mm/hr 0.00 in0.0 mm
10:41 AM 60.3°F15.7°C 30.2°F-1.0°C 32% 6.0 mph N9.7 kmh N 10.1 mph16.3 kmh 25.19 in853.0 mb 0.00 in0.0 mm 0.00 in/hr0.0 mm/hr 0.00 in0.0 mm
10:46 AM 61.3°F16.3°C 32.7°F0.4°C 34% 5.0 mph N8.0 kmh N 8.3 mph13.4 kmh 25.19 in853.0 mb 0.00 in0.0 mm 0.00 in/hr0.0 mm/hr 0.00 in0.0 mm
10:51 AM 63.7°F17.6°C 33.3°F0.7°C 32% 4.0 mph NE6.4 kmh NE 8.7 mph14.0 kmh 25.19 in853.0 mb 0.00 in0.0 mm 0.00 in/hr0.0 mm/hr 0.00 in0.0 mm
10:56 AM 62.8°F17.1°C 30.9°F-0.6°C 30% 4.0 mph NE6.4 kmh NE 8.7 mph14.0 kmh 25.19 in853.0 mb 0.00 in0.0 mm 0.00 in/hr0.0 mm/hr 0.00 in0.0 mm
11:01 AM 63.9°F17.7°C 30.2°F-1.0°C 28% 5.0 mph NE8.0 kmh NE 8.7 mph14.0 kmh 25.19 in853.0 mb 0.00 in0.0 mm 0.00 in/hr0.0 mm/hr 0.00 in0.0 mm
11:06 AM 64.2°F17.9°C 29.5°F-1.4°C 27% 5.0 mph NE8.0 kmh NE 8.3 mph13.4 kmh 25.19 in853.0 mb 0.00 in0.0 mm 0.00 in/hr0.0 mm/hr 0.00 in0.0 mm
11:11 AM 66.0°F18.9°C 31.1°F-0.5°C 27% 4.0 mph NNE6.4 kmh NNE 6.7 mph10.8 kmh 25.19 in853.0 mb 0.00 in0.0 mm 0.00 in/hr0.0 mm/hr 0.00 in0.0 mm
11:16 AM 66.6°F19.2°C 29.7°F-1.3°C 25% 3.0 mph NNE4.8 kmh NNE 7.4 mph11.9 kmh 25.19 in853.0 mb 0.00 in0.0 mm 0.00 in/hr0.0 mm/hr 0.00 in0.0 mm
11:21 AM 67.1°F19.5°C 29.1°F-1.6°C 24% 4.0 mph NNE6.4 kmh NNE 9.2 mph14.8 kmh 25.16 in852.0 mb 0.00 in0.0 mm 0.00 in/hr0.0 mm/hr 0.00 in0.0 mm
11:26 AM 65.8°F18.8°C 28.0°F-2.2°C 24% 5.0 mph NE8.0 kmh NE 8.3 mph13.4 kmh 25.16 in852.0 mb 0.00 in0.0 mm 0.00 in/hr0.0 mm/hr 0.00 in0.0 mm
11:31 AM 65.7°F18.7°C 28.9°F-1.7°C 25% 4.0 mph NE6.4 kmh NE 6.9 mph11.1 kmh 25.16 in852.0 mb 0.00 in0.0 mm 0.00 in/hr0.0 mm/hr 0.00 in0.0 mm
11:36 AM 66.9°F19.4°C 28.9°F-1.7°C 24% 3.0 mph NE4.8 kmh NE 4.9 mph7.9 kmh 25.16 in852.0 mb 0.00 in0.0 mm 0.00 in/hr0.0 mm/hr 0.00 in0.0 mm
11:41 AM 66.9°F19.4°C 28.9°F-1.7°C 24% 3.0 mph NE4.8 kmh NE 6.7 mph10.8 kmh 25.16 in852.0 mb 0.00 in0.0 mm 0.00 in/hr0.0 mm/hr 0.00 in0.0 mm
11:46 AM 66.4°F19.1°C 27.5°F-2.5°C 23% 4.0 mph NNE6.4 kmh NNE 5.8 mph9.3 kmh 25.16 in852.0 mb 0.00 in0.0 mm 0.00 in/hr0.0 mm/hr 0.00 in0.0 mm
11:51 AM 68.5°F20.3°C 29.3°F-1.5°C 23% 3.0 mph N4.8 kmh N 7.4 mph11.9 kmh 25.16 in852.0 mb 0.00 in0.0 mm 0.00 in/hr0.0 mm/hr 0.00 in0.0 mm
11:56 AM 67.5°F19.7°C 28.4°F-2.0°C 23% 4.0 mph NW6.4 kmh NW 6.9 mph11.1 kmh 25.16 in852.0 mb 0.00 in0.0 mm 0.00 in/hr0.0 mm/hr 0.00 in0.0 mm
12:01 PM 66.9°F19.4°C 27.9°F-2.3°C 23% 5.0 mph WNW8.0 kmh WNW 8.7 mph14.0 kmh 25.16 in852.0 mb 0.00 in0.0 mm 0.00 in/hr0.0 mm/hr 0.00 in0.0 mm
12:06 PM 66.9°F19.4°C 27.9°F-2.3°C 23% 5.0 mph NW8.0 kmh NW 6.7 mph10.8 kmh 25.16 in852.0 mb 0.00 in0.0 mm 0.00 in/hr0.0 mm/hr 0.00 in0.0 mm
12:11 PM 66.6°F19.2°C 27.7°F-2.4°C 23% 4.0 mph NNW6.4 kmh NNW 6.9 mph11.1 kmh 25.16 in852.0 mb 0.00 in0.0 mm 0.00 in/hr0.0 mm/hr 0.00 in0.0 mm
12:16 PM 65.8°F18.8°C 27.0°F-2.8°C 23% 3.0 mph NW4.8 kmh NW 5.4 mph8.7 kmh 25.16 in852.0 mb 0.00 in0.0 mm 0.00 in/hr0.0 mm/hr 0.00 in0.0 mm
12:22 PM 66.0°F18.9°C 28.2°F-2.1°C 24% 3.0 mph NW4.8 kmh NW 4.9 mph7.9 kmh 25.16 in852.0 mb 0.00 in0.0 mm 0.00 in/hr0.0 mm/hr 0.00 in0.0 mm
12:27 PM 67.5°F19.7°C 28.4°F-2.0°C 23% 2.0 mph NW3.2 kmh NW 5.4 mph8.7 kmh 25.16 in852.0 mb 0.00 in0.0 mm 0.00 in/hr0.0 mm/hr 0.00 in0.0 mm
12:32 PM 66.7°F19.3°C 27.7°F-2.4°C 23% 3.0 mph N4.8 kmh N 4.9 mph7.9 kmh 25.16 in852.0 mb 0.00 in0.0 mm 0.00 in/hr0.0 mm/hr 0.00 in0.0 mm
12:37 PM 66.6°F19.2°C 27.7°F-2.4°C 23% 2.0 mph E3.2 kmh E 3.6 mph5.8 kmh 25.16 in852.0 mb 0.00 in0.0 mm 0.00 in/hr0.0 mm/hr 0.00 in0.0 mm
12:42 PM 66.4°F19.1°C 27.5°F-2.5°C 23% 2.0 mph SE3.2 kmh SE 5.4 mph8.7 kmh 25.16 in852.0 mb 0.00 in0.0 mm 0.00 in/hr0.0 mm/hr 0.00 in0.0 mm
12:47 PM 66.7°F19.3°C 27.7°F-2.4°C 23% 2.0 mph SSE3.2 kmh SSE 3.6 mph5.8 kmh 25.16 in852.0 mb 0.00 in0.0 mm 0.00 in/hr0.0 mm/hr 0.00 in0.0 mm
12:52 PM 67.5°F19.7°C 28.4°F-2.0°C 23% 2.0 mph S3.2 kmh S 6.3 mph10.1 kmh 25.13 in851.0 mb 0.00 in0.0 mm 0.00 in/hr0.0 mm/hr 0.00 in0.0 mm
12:57 PM 67.3°F19.6°C 28.2°F-2.1°C 23% 4.0 mph S6.4 kmh S 7.4 mph11.9 kmh 25.13 in851.0 mb 0.00 in0.0 mm 0.00 in/hr0.0 mm/hr 0.00 in0.0 mm
01:02 PM 67.3°F19.6°C 28.2°F-2.1°C 23% 4.0 mph S6.4 kmh S 6.3 mph10.1 kmh 25.13 in851.0 mb 0.00 in0.0 mm 0.00 in/hr0.0 mm/hr 0.00 in0.0 mm
01:07 PM 67.3°F19.6°C 28.2°F-2.1°C 23% 4.0 mph S6.4 kmh S 6.7 mph10.8 kmh 25.13 in851.0 mb 0.00 in0.0 mm 0.00 in/hr0.0 mm/hr 0.00 in0.0 mm
01:12 PM 68.2°F20.1°C 28.9°F-1.7°C 23% 4.0 mph S6.4 kmh S 6.3 mph10.1 kmh 25.13 in851.0 mb 0.00 in0.0 mm 0.00 in/hr0.0 mm/hr 0.00 in0.0 mm
01:17 PM 69.6°F20.9°C 29.1°F-1.6°C 22% 4.0 mph S6.4 kmh S 6.9 mph11.1 kmh 25.13 in851.0 mb 0.00 in0.0 mm 0.00 in/hr0.0 mm/hr 0.00 in0.0 mm
01:22 PM 70.2°F21.2°C 26.1°F-3.3°C 19% 4.0 mph S6.4 kmh S 7.8 mph12.6 kmh 25.13 in851.0 mb 0.00 in0.0 mm 0.00 in/hr0.0 mm/hr 0.00 in0.0 mm
01:27 PM 69.4°F20.8°C 25.3°F-3.7°C 19% 4.0 mph SSW6.4 kmh SSW 6.3 mph10.1 kmh 25.13 in851.0 mb 0.00 in0.0 mm 0.00 in/hr0.0 mm/hr 0.00 in0.0 mm
01:32 PM 70.0°F21.1°C 25.9°F-3.4°C 19% 4.0 mph SW6.4 kmh SW 7.4 mph11.9 kmh 25.13 in851.0 mb 0.00 in0.0 mm 0.00 in/hr0.0 mm/hr 0.00 in0.0 mm
01:37 PM 69.1°F20.6°C 28.6°F-1.9°C 22% 4.0 mph SW6.4 kmh SW 7.4 mph11.9 kmh 25.13 in851.0 mb 0.00 in0.0 mm 0.00 in/hr0.0 mm/hr 0.00 in0.0 mm
01:42 PM 69.3°F20.7°C 28.8°F-1.8°C 22% 5.0 mph SSW8.0 kmh SSW 7.8 mph12.6 kmh 25.13 in851.0 mb 0.00 in0.0 mm 0.00 in/hr0.0 mm/hr 0.00 in0.0 mm
01:47 PM 69.4°F20.8°C 28.9°F-1.7°C 22% 6.0 mph S9.7 kmh S 10.1 mph16.3 kmh 25.13 in851.0 mb 0.00 in0.0 mm 0.00 in/hr0.0 mm/hr 0.00 in0.0 mm
01:52 PM 69.8°F21.0°C 29.3°F-1.5°C 22% 7.0 mph S11.3 kmh S 10.1 mph16.3 kmh 25.10 in850.0 mb 0.00 in0.0 mm 0.00 in/hr0.0 mm/hr 0.00 in0.0 mm
01:57 PM 69.8°F21.0°C 29.3°F-1.5°C 22% 7.0 mph S11.3 kmh S 8.7 mph14.0 kmh 25.10 in850.0 mb 0.00 in0.0 mm 0.00 in/hr0.0 mm/hr 0.00 in0.0 mm
02:02 PM 68.9°F20.5°C 28.4°F-2.0°C 22% 6.0 mph S9.7 kmh S 9.2 mph14.8 kmh 25.10 in850.0 mb 0.00 in0.0 mm 0.00 in/hr0.0 mm/hr 0.00 in0.0 mm
02:07 PM 69.8°F21.0°C 25.7°F-3.5°C 19% 6.0 mph S9.7 kmh S 9.6 mph15.4 kmh 25.10 in850.0 mb 0.00 in0.0 mm 0.00 in/hr0.0 mm/hr 0.00 in0.0 mm
02:12 PM 69.3°F20.7°C 28.8°F-1.8°C 22% 6.0 mph S9.7 kmh S 10.1 mph16.3 kmh 25.10 in850.0 mb 0.00 in0.0 mm 0.00 in/hr0.0 mm/hr 0.00 in0.0 mm
02:17 PM 70.9°F21.6°C 22.5°F-5.3°C 16% 7.0 mph S11.3 kmh S 10.5 mph16.9 kmh 25.10 in850.0 mb 0.00 in0.0 mm 0.00 in/hr0.0 mm/hr 0.00 in0.0 mm
02:22 PM 70.9°F21.6°C 19.4°F-7.0°C 14% 8.0 mph S12.9 kmh S 11.0 mph17.7 kmh 25.10 in850.0 mb 0.00 in0.0 mm 0.00 in/hr0.0 mm/hr 0.00 in0.0 mm
02:27 PM 71.8°F22.1°C 23.2°F-4.9°C 16% 8.0 mph S12.9 kmh S 11.6 mph18.7 kmh 25.10 in850.0 mb 0.00 in0.0 mm 0.00 in/hr0.0 mm/hr 0.00 in0.0 mm
02:32 PM 71.1°F21.7°C 22.6°F-5.2°C 16% 8.0 mph S12.9 kmh S 11.6 mph18.7 kmh 25.10 in850.0 mb 0.00 in0.0 mm 0.00 in/hr0.0 mm/hr 0.00 in0.0 mm
02:37 PM 70.9°F21.6°C 19.4°F-7.0°C 14% 7.0 mph S11.3 kmh S 11.0 mph17.7 kmh 25.10 in850.0 mb 0.00 in0.0 mm 0.00 in/hr0.0 mm/hr 0.00 in0.0 mm
02:42 PM 71.2°F21.8°C 19.6°F-6.9°C 14% 7.0 mph S11.3 kmh S 11.6 mph18.7 kmh 25.10 in850.0 mb 0.00 in0.0 mm 0.00 in/hr0.0 mm/hr 0.00 in0.0 mm
02:47 PM 70.0°F21.1°C 18.7°F-7.4°C 14% 8.0 mph S12.9 kmh S 11.0 mph17.7 kmh 25.10 in850.0 mb 0.00 in0.0 mm 0.00 in/hr0.0 mm/hr 0.00 in0.0 mm
02:52 PM 70.5°F21.4°C 19.0°F-7.2°C 14% 8.0 mph S12.9 kmh S 10.5 mph16.9 kmh 25.10 in850.0 mb 0.00 in0.0 mm 0.00 in/hr0.0 mm/hr 0.00 in0.0 mm
02:57 PM 71.4°F21.9°C 19.8°F-6.8°C 14% 7.0 mph S11.3 kmh S 11.6 mph18.7 kmh 25.10 in850.0 mb 0.00 in0.0 mm 0.00 in/hr0.0 mm/hr 0.00 in0.0 mm
03:02 PM 72.0°F22.2°C 20.1°F-6.6°C 14% 7.0 mph S11.3 kmh S 10.5 mph16.9 kmh 25.10 in850.0 mb 0.00 in0.0 mm 0.00 in/hr0.0 mm/hr 0.00 in0.0 mm
03:07 PM 72.1°F22.3°C 14.7°F-9.6°C 11% 8.0 mph S12.9 kmh S 12.1 mph19.5 kmh 25.10 in850.0 mb 0.00 in0.0 mm 0.00 in/hr0.0 mm/hr 0.00 in0.0 mm
03:12 PM 72.0°F22.2°C 14.5°F-9.7°C 11% 8.0 mph S12.9 kmh S 12.1 mph19.5 kmh 25.10 in850.0 mb 0.00 in0.0 mm 0.00 in/hr0.0 mm/hr 0.00 in0.0 mm
03:17 PM 71.4°F21.9°C 14.2°F-9.9°C 11% 7.0 mph S11.3 kmh S 11.6 mph18.7 kmh 25.10 in850.0 mb 0.00 in0.0 mm 0.00 in/hr0.0 mm/hr 0.00 in0.0 mm
03:22 PM 72.1°F22.3°C 14.7°F-9.6°C 11% 7.0 mph S11.3 kmh S 10.1 mph16.3 kmh 25.10 in850.0 mb 0.00 in0.0 mm 0.00 in/hr0.0 mm/hr 0.00 in0.0 mm
03:27 PM 72.1°F22.3°C 14.7°F-9.6°C 11% 7.0 mph S11.3 kmh S 11.6 mph18.7 kmh 25.10 in850.0 mb 0.00 in0.0 mm 0.00 in/hr0.0 mm/hr 0.00 in0.0 mm
03:32 PM 70.7°F21.5°C 13.6°F-10.2°C 11% 7.0 mph S11.3 kmh S 11.2 mph18.0 kmh 25.10 in850.0 mb 0.00 in0.0 mm 0.00 in/hr0.0 mm/hr 0.00 in0.0 mm
03:37 PM 70.5°F21.4°C 15.4°F-9.2°C 12% 7.0 mph S11.3 kmh S 9.6 mph15.4 kmh 25.10 in850.0 mb 0.00 in0.0 mm 0.00 in/hr0.0 mm/hr 0.00 in0.0 mm
03:42 PM 71.2°F21.8°C 19.6°F-6.9°C 14% 6.0 mph SSE9.7 kmh SSE 10.1 mph16.3 kmh 25.10 in850.0 mb 0.00 in0.0 mm 0.00 in/hr0.0 mm/hr 0.00 in0.0 mm
03:47 PM 71.1°F21.7°C 19.4°F-7.0°C 14% 7.0 mph SSE11.3 kmh SSE 11.0 mph17.7 kmh 25.10 in850.0 mb 0.00 in0.0 mm 0.00 in/hr0.0 mm/hr 0.00 in0.0 mm
03:52 PM 71.4°F21.9°C 19.8°F-6.8°C 14% 7.0 mph S11.3 kmh S 9.6 mph15.4 kmh 25.07 in849.0 mb 0.00 in0.0 mm 0.00 in/hr0.0 mm/hr 0.00 in0.0 mm
03:57 PM 71.1°F21.7°C 19.4°F-7.0°C 14% 6.0 mph S9.7 kmh S 9.2 mph14.8 kmh 25.07 in849.0 mb 0.00 in0.0 mm 0.00 in/hr0.0 mm/hr 0.00 in0.0 mm
04:02 PM 72.0°F22.2°C 20.1°F-6.6°C 14% 6.0 mph S9.7 kmh S 9.2 mph14.8 kmh 25.07 in849.0 mb 0.00 in0.0 mm 0.00 in/hr0.0 mm/hr 0.00 in0.0 mm
04:07 PM 71.8°F22.1°C 19.9°F-6.7°C 14% 6.0 mph S9.7 kmh S 8.3 mph13.4 kmh 25.07 in849.0 mb 0.00 in0.0 mm 0.00 in/hr0.0 mm/hr 0.00 in0.0 mm
04:12 PM 71.8°F22.1°C 19.9°F-6.7°C 14% 5.0 mph S8.0 kmh S 8.3 mph13.4 kmh 25.07 in849.0 mb 0.00 in0.0 mm 0.00 in/hr0.0 mm/hr 0.00 in0.0 mm
04:17 PM 72.0°F22.2°C 20.1°F-6.6°C 14% 6.0 mph S9.7 kmh S 11.6 mph18.7 kmh 25.07 in849.0 mb 0.00 in0.0 mm 0.00 in/hr0.0 mm/hr 0.00 in0.0 mm
04:22 PM 71.8°F22.1°C 19.9°F-6.7°C 14% 6.0 mph S9.7 kmh S 8.7 mph14.0 kmh 25.07 in849.0 mb 0.00 in0.0 mm 0.00 in/hr0.0 mm/hr 0.00 in0.0 mm
04:27 PM 71.6°F22.0°C 14.4°F-9.8°C 11% 7.0 mph S11.3 kmh S 10.1 mph16.3 kmh 25.07 in849.0 mb 0.00 in0.0 mm 0.00 in/hr0.0 mm/hr 0.00 in0.0 mm
04:32 PM 71.2°F21.8°C 19.6°F-6.9°C 14% 8.0 mph S12.9 kmh S 10.5 mph16.9 kmh 25.07 in849.0 mb 0.00 in0.0 mm 0.00 in/hr0.0 mm/hr 0.00 in0.0 mm
04:37 PM 72.0°F22.2°C 20.1°F-6.6°C 14% 6.0 mph S9.7 kmh S 9.6 mph15.4 kmh 25.07 in849.0 mb 0.00 in0.0 mm 0.00 in/hr0.0 mm/hr 0.00 in0.0 mm
04:42 PM 71.2°F21.8°C 14.0°F-10.0°C 11% 6.0 mph S9.7 kmh S 11.0 mph17.7 kmh 25.07 in849.0 mb 0.00 in0.0 mm 0.00 in/hr0.0 mm/hr 0.00 in0.0 mm
04:47 PM 71.2°F21.8°C 19.6°F-6.9°C 14% 7.0 mph S11.3 kmh S 10.5 mph16.9 kmh 25.07 in849.0 mb 0.00 in0.0 mm 0.00 in/hr0.0 mm/hr 0.00 in0.0 mm
04:52 PM 71.4°F21.9°C 19.8°F-6.8°C 14% 7.0 mph S11.3 kmh S 10.5 mph16.9 kmh 25.07 in849.0 mb 0.00 in0.0 mm 0.00 in/hr0.0 mm/hr 0.00 in0.0 mm
04:57 PM 71.6°F22.0°C 19.9°F-6.7°C 14% 7.0 mph S11.3 kmh S 10.1 mph16.3 kmh 25.07 in849.0 mb 0.00 in0.0 mm 0.00 in/hr0.0 mm/hr 0.00 in0.0 mm
05:02 PM 71.8°F22.1°C 19.9°F-6.7°C 14% 6.0 mph SSE9.7 kmh SSE 7.8 mph12.6 kmh 25.07 in849.0 mb 0.00 in0.0 mm 0.00 in/hr0.0 mm/hr 0.00 in0.0 mm
05:07 PM 71.6°F22.0°C 19.9°F-6.7°C 14% 5.0 mph SSE8.0 kmh SSE 9.2 mph14.8 kmh 25.07 in849.0 mb 0.00 in0.0 mm 0.00 in/hr0.0 mm/hr 0.00 in0.0 mm
05:12 PM 70.7°F21.5°C 19.2°F-7.1°C 14% 5.0 mph SSE8.0 kmh SSE 6.7 mph10.8 kmh 25.07 in849.0 mb 0.00 in0.0 mm 0.00 in/hr0.0 mm/hr 0.00 in0.0 mm
05:17 PM 70.5°F21.4°C 23.5°F-4.7°C 17% 4.0 mph SE6.4 kmh SE 6.3 mph10.1 kmh 25.07 in849.0 mb 0.00 in0.0 mm 0.00 in/hr0.0 mm/hr 0.00 in0.0 mm
05:22 PM 70.5°F21.4°C 23.5°F-4.7°C 17% 4.0 mph SE6.4 kmh SE 5.8 mph9.3 kmh 25.07 in849.0 mb 0.00 in0.0 mm 0.00 in/hr0.0 mm/hr 0.00 in0.0 mm
05:27 PM 70.5°F21.4°C 19.0°F-7.2°C 14% 4.0 mph SE6.4 kmh SE 6.7 mph10.8 kmh 25.07 in849.0 mb 0.00 in0.0 mm 0.00 in/hr0.0 mm/hr 0.00 in0.0 mm
05:32 PM 70.5°F21.4°C 23.5°F-4.7°C 17% 3.0 mph ESE4.8 kmh ESE 5.4 mph8.7 kmh 25.07 in849.0 mb 0.00 in0.0 mm 0.00 in/hr0.0 mm/hr 0.00 in0.0 mm
05:37 PM 70.7°F21.5°C 23.7°F-4.6°C 17% 3.0 mph ESE4.8 kmh ESE 4.9 mph7.9 kmh 25.07 in849.0 mb 0.00 in0.0 mm 0.00 in/hr0.0 mm/hr 0.00 in0.0 mm
05:42 PM 70.5°F21.4°C 23.5°F-4.7°C 17% 3.0 mph ESE4.8 kmh ESE 4.5 mph7.2 kmh 25.07 in849.0 mb 0.00 in0.0 mm 0.00 in/hr0.0 mm/hr 0.00 in0.0 mm
05:47 PM 70.0°F21.1°C 23.2°F-4.9°C 17% 3.0 mph ESE4.8 kmh ESE 4.0 mph6.4 kmh 25.07 in849.0 mb 0.00 in0.0 mm 0.00 in/hr0.0 mm/hr 0.00 in0.0 mm
05:52 PM 69.3°F20.7°C 25.2°F-3.8°C 19% 2.0 mph ESE3.2 kmh ESE 3.6 mph5.8 kmh 25.07 in849.0 mb 0.00 in0.0 mm 0.00 in/hr0.0 mm/hr 0.00 in0.0 mm
05:57 PM 68.2°F20.1°C 25.5°F-3.6°C 20% 2.0 mph ESE3.2 kmh ESE 3.1 mph5.0 kmh 25.07 in849.0 mb 0.00 in0.0 mm 0.00 in/hr0.0 mm/hr 0.00 in0.0 mm
06:02 PM 67.6°F19.8°C 27.5°F-2.5°C 22% Calm Calm -- 25.07 in849.0 mb 0.00 in0.0 mm 0.00 in/hr0.0 mm/hr 0.00 in0.0 mm
06:07 PM 66.9°F19.4°C 27.9°F-2.3°C 23% Calm Calm -- 25.07 in849.0 mb 0.00 in0.0 mm 0.00 in/hr0.0 mm/hr 0.00 in0.0 mm
06:12 PM 66.2°F19.0°C 27.3°F-2.6°C 23% Calm Calm 3.6 mph5.8 kmh 25.07 in849.0 mb 0.00 in0.0 mm 0.00 in/hr0.0 mm/hr 0.00 in0.0 mm
06:17 PM 65.7°F18.7°C 26.8°F-2.9°C 23% 1.0 mph ESE1.6 kmh ESE 3.6 mph5.8 kmh 25.07 in849.0 mb 0.00 in0.0 mm 0.00 in/hr0.0 mm/hr 0.00 in0.0 mm
06:22 PM 65.3°F18.5°C 27.5°F-2.5°C 24% 1.0 mph ESE1.6 kmh ESE 3.1 mph5.0 kmh 25.07 in849.0 mb 0.00 in0.0 mm 0.00 in/hr0.0 mm/hr 0.00 in0.0 mm
06:27 PM 64.6°F18.1°C 28.0°F-2.2°C 25% 1.0 mph ESE1.6 kmh ESE 4.0 mph6.4 kmh 25.07 in849.0 mb 0.00 in0.0 mm 0.00 in/hr0.0 mm/hr 0.00 in0.0 mm
06:32 PM 64.4°F18.0°C 27.9°F-2.3°C 25% 1.0 mph ESE1.6 kmh ESE 4.5 mph7.2 kmh 25.07 in849.0 mb 0.00 in0.0 mm 0.00 in/hr0.0 mm/hr 0.00 in0.0 mm
06:38 PM 64.4°F18.0°C 28.8°F-1.8°C 26% 2.0 mph ESE3.2 kmh ESE 3.6 mph5.8 kmh 25.07 in849.0 mb 0.00 in0.0 mm 0.00 in/hr0.0 mm/hr 0.00 in0.0 mm
06:43 PM 64.6°F18.1°C 28.9°F-1.7°C 26% 1.0 mph ESE1.6 kmh ESE 3.6 mph5.8 kmh 25.07 in849.0 mb 0.00 in0.0 mm 0.00 in/hr0.0 mm/hr 0.00 in0.0 mm
06:48 PM 63.9°F17.7°C 28.2°F-2.1°C 26% 2.0 mph ESE3.2 kmh ESE 5.4 mph8.7 kmh 25.07 in849.0 mb 0.00 in0.0 mm 0.00 in/hr0.0 mm/hr 0.00 in0.0 mm
06:53 PM 63.1°F17.3°C 28.6°F-1.9°C 27% 3.0 mph E4.8 kmh E 4.5 mph7.2 kmh 25.07 in849.0 mb 0.00 in0.0 mm 0.00 in/hr0.0 mm/hr 0.00 in0.0 mm
06:58 PM 63.1°F17.3°C 29.5°F-1.4°C 28% 1.0 mph E1.6 kmh E 2.7 mph4.3 kmh 25.07 in849.0 mb 0.00 in0.0 mm 0.00 in/hr0.0 mm/hr 0.00 in0.0 mm
07:03 PM 63.0°F17.2°C 29.3°F-1.5°C 28% Calm Calm -- 25.07 in849.0 mb 0.00 in0.0 mm 0.00 in/hr0.0 mm/hr 0.00 in0.0 mm
07:08 PM 62.6°F17.0°C 29.1°F-1.6°C 28% Calm Calm -- 25.07 in849.0 mb 0.00 in0.0 mm 0.00 in/hr0.0 mm/hr 0.00 in0.0 mm
07:13 PM 62.4°F16.9°C 29.7°F-1.3°C 29% Calm Calm 3.1 mph5.0 kmh 25.07 in849.0 mb 0.00 in0.0 mm 0.00 in/hr0.0 mm/hr 0.00 in0.0 mm
07:18 PM 62.4°F16.9°C 29.7°F-1.3°C 29% 1.0 mph E1.6 kmh E 4.9 mph7.9 kmh 25.07 in849.0 mb 0.00 in0.0 mm 0.00 in/hr0.0 mm/hr 0.00 in0.0 mm
07:23 PM 62.2°F16.8°C 29.7°F-1.3°C 29% 2.0 mph ENE3.2 kmh ENE 4.0 mph6.4 kmh 25.07 in849.0 mb 0.00 in0.0 mm 0.00 in/hr0.0 mm/hr 0.00 in0.0 mm
07:28 PM 62.6°F17.0°C 29.8°F-1.2°C 29% Calm Calm -- 25.07 in849.0 mb 0.00 in0.0 mm 0.00 in/hr0.0 mm/hr 0.00 in0.0 mm
07:33 PM 63.1°F17.3°C 29.5°F-1.4°C 28% Calm Calm 3.1 mph5.0 kmh 25.07 in849.0 mb 0.00 in0.0 mm 0.00 in/hr0.0 mm/hr 0.00 in0.0 mm
07:38 PM 63.0°F17.2°C 29.3°F-1.5°C 28% Calm Calm 4.0 mph6.4 kmh 25.07 in849.0 mb 0.00 in0.0 mm 0.00 in/hr0.0 mm/hr 0.00 in0.0 mm
07:43 PM 62.1°F16.7°C 28.6°F-1.9°C 28% Calm Calm -- 25.07 in849.0 mb 0.00 in0.0 mm 0.00 in/hr0.0 mm/hr 0.00 in0.0 mm
07:48 PM 62.1°F16.7°C 28.6°F-1.9°C 28% Calm Calm -- 25.07 in849.0 mb 0.00 in0.0 mm 0.00 in/hr0.0 mm/hr 0.00 in0.0 mm
07:53 PM 62.1°F16.7°C 28.6°F-1.9°C 28% Calm Calm -- 25.07 in849.0 mb 0.00 in0.0 mm 0.00 in/hr0.0 mm/hr 0.00 in0.0 mm
07:58 PM 61.9°F16.6°C 29.3°F-1.5°C 29% 1.0 mph NE1.6 kmh NE 6.3 mph10.1 kmh 25.07 in849.0 mb 0.00 in0.0 mm 0.00 in/hr0.0 mm/hr 0.00 in0.0 mm
08:03 PM 62.1°F16.7°C 29.5°F-1.4°C 29% 3.0 mph NE4.8 kmh NE 4.0 mph6.4 kmh 25.07 in849.0 mb 0.00 in0.0 mm 0.00 in/hr0.0 mm/hr 0.00 in0.0 mm
08:08 PM 62.1°F16.7°C 28.6°F-1.9°C 28% 3.0 mph NE4.8 kmh NE 5.8 mph9.3 kmh 25.07 in849.0 mb 0.00 in0.0 mm 0.00 in/hr0.0 mm/hr 0.00 in0.0 mm
08:13 PM 62.1°F16.7°C 29.5°F-1.4°C 29% 4.0 mph NE6.4 kmh NE 5.8 mph9.3 kmh 25.07 in849.0 mb 0.00 in0.0 mm 0.00 in/hr0.0 mm/hr 0.00 in0.0 mm
08:18 PM 61.9°F16.6°C 29.3°F-1.5°C 29% 1.0 mph E1.6 kmh E 4.9 mph7.9 kmh 25.07 in849.0 mb 0.00 in0.0 mm 0.00 in/hr0.0 mm/hr 0.00 in0.0 mm
08:23 PM 61.9°F16.6°C 29.3°F-1.5°C 29% Calm Calm 6.7 mph10.8 kmh 25.07 in849.0 mb 0.00 in0.0 mm 0.00 in/hr0.0 mm/hr 0.00 in0.0 mm
08:28 PM 62.1°F16.7°C 28.6°F-1.9°C 28% 2.0 mph ESE3.2 kmh ESE 6.3 mph10.1 kmh 25.07 in849.0 mb 0.00 in0.0 mm 0.00 in/hr0.0 mm/hr 0.00 in0.0 mm
08:33 PM 62.6°F17.0°C 29.1°F-1.6°C 28% 4.0 mph ESE6.4 kmh ESE 7.4 mph11.9 kmh 25.07 in849.0 mb 0.00 in0.0 mm 0.00 in/hr0.0 mm/hr 0.00 in0.0 mm
08:38 PM 62.8°F17.1°C 28.2°F-2.1°C 27% 4.0 mph E6.4 kmh E 5.4 mph8.7 kmh 25.07 in849.0 mb 0.00 in0.0 mm 0.00 in/hr0.0 mm/hr 0.00 in0.0 mm
08:43 PM 62.6°F17.0°C 28.2°F-2.1°C 27% 1.0 mph ESE1.6 kmh ESE 3.1 mph5.0 kmh 25.07 in849.0 mb 0.00 in0.0 mm 0.00 in/hr0.0 mm/hr 0.00 in0.0 mm
08:48 PM 62.6°F17.0°C 28.2°F-2.1°C 27% 1.0 mph ESE1.6 kmh ESE 4.9 mph7.9 kmh 25.07 in849.0 mb 0.00 in0.0 mm 0.00 in/hr0.0 mm/hr 0.00 in0.0 mm
08:53 PM 62.4°F16.9°C 28.0°F-2.2°C 27% 2.0 mph ESE3.2 kmh ESE 5.4 mph8.7 kmh 25.07 in849.0 mb 0.00 in0.0 mm 0.00 in/hr0.0 mm/hr 0.00 in0.0 mm
08:58 PM 62.1°F16.7°C 27.7°F-2.4°C 27% 1.0 mph ESE1.6 kmh ESE 4.0 mph6.4 kmh 25.07 in849.0 mb 0.00 in0.0 mm 0.00 in/hr0.0 mm/hr 0.00 in0.0 mm
09:03 PM 62.2°F16.8°C 27.9°F-2.3°C 27% 1.0 mph ESE1.6 kmh ESE 4.0 mph6.4 kmh 25.07 in849.0 mb 0.00 in0.0 mm 0.00 in/hr0.0 mm/hr 0.00 in0.0 mm
09:08 PM 62.2°F16.8°C 27.9°F-2.3°C 27% 1.0 mph ESE1.6 kmh ESE 4.5 mph7.2 kmh 25.07 in849.0 mb 0.00 in0.0 mm 0.00 in/hr0.0 mm/hr 0.00 in0.0 mm
09:13 PM 62.8°F17.1°C 27.3°F-2.6°C 26% 3.0 mph ESE4.8 kmh ESE 7.4 mph11.9 kmh 25.07 in849.0 mb 0.00 in0.0 mm 0.00 in/hr0.0 mm/hr 0.00 in0.0 mm
09:18 PM 62.8°F17.1°C 27.3°F-2.6°C 26% 4.0 mph ESE6.4 kmh ESE 7.4 mph11.9 kmh 25.07 in849.0 mb 0.00 in0.0 mm 0.00 in/hr0.0 mm/hr 0.00 in0.0 mm
09:23 PM 62.8°F17.1°C 27.3°F-2.6°C 26% 4.0 mph SE6.4 kmh SE 6.3 mph10.1 kmh 25.07 in849.0 mb 0.00 in0.0 mm 0.00 in/hr0.0 mm/hr 0.00 in0.0 mm
09:28 PM 62.4°F16.9°C 27.1°F-2.7°C 26% 3.0 mph SE4.8 kmh SE 5.8 mph9.3 kmh 25.07 in849.0 mb 0.00 in0.0 mm 0.00 in/hr0.0 mm/hr 0.00 in0.0 mm
09:33 PM 62.2°F16.8°C 27.0°F-2.8°C 26% 3.0 mph ESE4.8 kmh ESE 6.9 mph11.1 kmh 25.07 in849.0 mb 0.00 in0.0 mm 0.00 in/hr0.0 mm/hr 0.00 in0.0 mm
09:38 PM 62.2°F16.8°C 27.0°F-2.8°C 26% 4.0 mph E6.4 kmh E 6.7 mph10.8 kmh 25.07 in849.0 mb 0.00 in0.0 mm 0.00 in/hr0.0 mm/hr 0.00 in0.0 mm
09:43 PM 62.1°F16.7°C 26.8°F-2.9°C 26% 4.0 mph ESE6.4 kmh ESE 6.9 mph11.1 kmh 25.07 in849.0 mb 0.00 in0.0 mm 0.00 in/hr0.0 mm/hr 0.00 in0.0 mm
09:48 PM 61.7°F16.5°C 27.3°F-2.6°C 27% 4.0 mph ESE6.4 kmh ESE 5.4 mph8.7 kmh 25.07 in849.0 mb 0.00 in0.0 mm 0.00 in/hr0.0 mm/hr 0.00 in0.0 mm
09:53 PM 61.5°F16.4°C 27.1°F-2.7°C 27% 4.0 mph ESE6.4 kmh ESE 6.3 mph10.1 kmh 25.07 in849.0 mb 0.00 in0.0 mm 0.00 in/hr0.0 mm/hr 0.00 in0.0 mm
09:58 PM 61.5°F16.4°C 27.1°F-2.7°C 27% 4.0 mph E6.4 kmh E 6.3 mph10.1 kmh 25.07 in849.0 mb 0.00 in0.0 mm 0.00 in/hr0.0 mm/hr 0.00 in0.0 mm
10:03 PM 61.0°F16.1°C 26.8°F-2.9°C 27% 2.0 mph E3.2 kmh E 4.5 mph7.2 kmh 25.07 in849.0 mb 0.00 in0.0 mm 0.00 in/hr0.0 mm/hr 0.00 in0.0 mm
10:08 PM 60.8°F16.0°C 26.6°F-3.0°C 27% 1.0 mph E1.6 kmh E 3.1 mph5.0 kmh 25.07 in849.0 mb 0.00 in0.0 mm 0.00 in/hr0.0 mm/hr 0.00 in0.0 mm
10:13 PM 60.6°F15.9°C 27.3°F-2.6°C 28% Calm Calm 4.0 mph6.4 kmh 25.07 in849.0 mb 0.00 in0.0 mm 0.00 in/hr0.0 mm/hr 0.00 in0.0 mm
10:18 PM 61.0°F16.1°C 27.7°F-2.4°C 28% 1.0 mph E1.6 kmh E 4.5 mph7.2 kmh 25.07 in849.0 mb 0.00 in0.0 mm 0.00 in/hr0.0 mm/hr 0.00 in0.0 mm
10:23 PM 61.0°F16.1°C 26.8°F-2.9°C 27% 2.0 mph E3.2 kmh E 5.4 mph8.7 kmh 25.07 in849.0 mb 0.00 in0.0 mm 0.00 in/hr0.0 mm/hr 0.00 in0.0 mm
10:28 PM 61.0°F16.1°C 27.7°F-2.4°C 28% Calm Calm -- 25.07 in849.0 mb 0.00 in0.0 mm 0.00 in/hr0.0 mm/hr 0.00 in0.0 mm
10:33 PM 60.6°F15.9°C 27.3°F-2.6°C 28% Calm Calm -- 25.07 in849.0 mb 0.00 in0.0 mm 0.00 in/hr0.0 mm/hr 0.00 in0.0 mm
10:38 PM 60.4°F15.8°C 27.1°F-2.7°C 28% Calm Calm -- 25.07 in849.0 mb 0.00 in0.0 mm 0.00 in/hr0.0 mm/hr 0.00 in0.0 mm
10:43 PM 60.6°F15.9°C 27.3°F-2.6°C 28% Calm Calm -- 25.07 in849.0 mb 0.00 in0.0 mm 0.00 in/hr0.0 mm/hr 0.00 in0.0 mm
10:48 PM 60.1°F15.6°C 27.7°F-2.4°C 29% Calm Calm 3.6 mph5.8 kmh 25.07 in849.0 mb 0.00 in0.0 mm 0.00 in/hr0.0 mm/hr 0.00 in0.0 mm
10:53 PM 61.0°F16.1°C 27.7°F-2.4°C 28% 1.0 mph E1.6 kmh E 4.9 mph7.9 kmh 25.07 in849.0 mb 0.00 in0.0 mm 0.00 in/hr0.0 mm/hr 0.00 in0.0 mm
10:58 PM 63.1°F17.3°C 27.7°F-2.4°C 26% 3.0 mph NE4.8 kmh NE 5.8 mph9.3 kmh 25.07 in849.0 mb 0.00 in0.0 mm 0.00 in/hr0.0 mm/hr 0.00 in0.0 mm
11:03 PM 64.0°F17.8°C 27.5°F-2.5°C 25% 5.0 mph NNW8.0 kmh NNW 8.3 mph13.4 kmh 25.07 in849.0 mb 0.00 in0.0 mm 0.00 in/hr0.0 mm/hr 0.00 in0.0 mm
11:08 PM 64.0°F17.8°C 26.6°F-3.0°C 24% 5.0 mph NW8.0 kmh NW 6.9 mph11.1 kmh 25.07 in849.0 mb 0.00 in0.0 mm 0.00 in/hr0.0 mm/hr 0.00 in0.0 mm
11:13 PM 64.2°F17.9°C 26.6°F-3.0°C 24% 5.0 mph NW8.0 kmh NW 6.3 mph10.1 kmh 25.07 in849.0 mb 0.00 in0.0 mm 0.00 in/hr0.0 mm/hr 0.00 in0.0 mm
11:18 PM 63.0°F17.2°C 26.6°F-3.0°C 25% 4.0 mph NW6.4 kmh NW 6.9 mph11.1 kmh 25.07 in849.0 mb 0.00 in0.0 mm 0.00 in/hr0.0 mm/hr 0.00 in0.0 mm
11:23 PM 61.7°F16.5°C 26.4°F-3.1°C 26% 4.0 mph NNW6.4 kmh NNW 6.3 mph10.1 kmh 25.07 in849.0 mb 0.00 in0.0 mm 0.00 in/hr0.0 mm/hr 0.00 in0.0 mm
11:28 PM 61.3°F16.3°C 28.0°F-2.2°C 28% 4.0 mph N6.4 kmh N 6.3 mph10.1 kmh 25.07 in849.0 mb 0.00 in0.0 mm 0.00 in/hr0.0 mm/hr 0.00 in0.0 mm
11:33 PM 61.0°F16.1°C 28.6°F-1.9°C 29% 3.0 mph NNE4.8 kmh NNE 4.9 mph7.9 kmh 25.07 in849.0 mb 0.00 in0.0 mm 0.00 in/hr0.0 mm/hr 0.00 in0.0 mm
11:38 PM 60.6°F15.9°C 29.8°F-1.2°C 31% 3.0 mph ENE4.8 kmh ENE 5.8 mph9.3 kmh 25.07 in849.0 mb 0.00 in0.0 mm 0.00 in/hr0.0 mm/hr 0.00 in0.0 mm
11:43 PM 60.3°F15.7°C 29.5°F-1.4°C 31% 2.0 mph SSE3.2 kmh SSE 6.3 mph10.1 kmh 25.07 in849.0 mb 0.00 in0.0 mm 0.00 in/hr0.0 mm/hr 0.00 in0.0 mm
11:48 PM 60.1°F15.6°C 30.2°F-1.0°C 32% 2.0 mph SE3.2 kmh SE 4.0 mph6.4 kmh 25.07 in849.0 mb 0.00 in0.0 mm 0.00 in/hr0.0 mm/hr 0.00 in0.0 mm
11:53 PM 59.9°F15.5°C 31.5°F-0.3°C 34% 1.0 mph E1.6 kmh E 5.8 mph9.3 kmh 25.07 in849.0 mb 0.00 in0.0 mm 0.00 in/hr0.0 mm/hr 0.00 in0.0 mm
11:58 PM 59.7°F15.4°C 31.3°F-0.4°C 34% 2.0 mph N3.2 kmh N 4.9 mph7.9 kmh 25.07 in849.0 mb 0.00 in0.0 mm 0.00 in/hr0.0 mm/hr 0.00 in0.0 mm